sensor_id;sensor_type;location;lat;lon;timestamp;pressure;altitude;pressure_sealevel;temperature;humidity
69318;BME280;56457;52.190;4.440;2023-10-09T00:00:14;102215.72;;;18.29;100.00
69318;BME280;56457;52.190;4.440;2023-10-09T00:01:33;102217.44;;;18.34;100.00
69318;BME280;56457;52.190;4.440;2023-10-09T00:02:33;102209.44;;;18.35;100.00
69318;BME280;56457;52.190;4.440;2023-10-09T00:03:34;102221.84;;;18.35;100.00
69318;BME280;56457;52.190;4.440;2023-10-09T00:04:37;102220.03;;;18.37;100.00
69318;BME280;56457;52.190;4.440;2023-10-09T00:05:38;102214.72;;;18.37;100.00
69318;BME280;56457;52.190;4.440;2023-10-09T00:06:44;102223.56;;;18.39;100.00
69318;BME280;56457;52.190;4.440;2023-10-09T00:07:48;102212.81;;;18.43;100.00
69318;BME280;56457;52.190;4.440;2023-10-09T00:08:48;102211.06;;;18.42;100.00
69318;BME280;56457;52.190;4.440;2023-10-09T00:09:53;102210.16;;;18.45;100.00
69318;BME280;56457;52.190;4.440;2023-10-09T00:10:55;102211.03;;;18.45;100.00
69318;BME280;56457;52.190;4.440;2023-10-09T00:11:57;102211.03;;;18.44;100.00
69318;BME280;56457;52.190;4.440;2023-10-09T00:12:57;102220.75;;;18.46;100.00
69318;BME280;56457;52.190;4.440;2023-10-09T00:13:58;102216.31;;;18.47;100.00
69318;BME280;56457;52.190;4.440;2023-10-09T00:14:58;102214.44;;;18.50;100.00
69318;BME280;56457;52.190;4.440;2023-10-09T00:16:12;102216.19;;;18.53;100.00
69318;BME280;56457;52.190;4.440;2023-10-09T00:17:23;102211.72;;;18.55;100.00
69318;BME280;56457;52.190;4.440;2023-10-09T00:18:23;102212.50;;;18.60;100.00
69318;BME280;56457;52.190;4.440;2023-10-09T00:19:29;102214.22;;;18.64;100.00
69318;BME280;56457;52.190;4.440;2023-10-09T00:20:36;102212.44;;;18.63;100.00
69318;BME280;56457;52.190;4.440;2023-10-09T00:21:48;102216.88;;;18.64;100.00
69318;BME280;56457;52.190;4.440;2023-10-09T00:22:49;102212.41;;;18.65;100.00
69318;BME280;56457;52.190;4.440;2023-10-09T00:23:51;102211.50;;;18.66;100.00
69318;BME280;56457;52.190;4.440;2023-10-09T00:24:59;102208.84;;;18.66;100.00
69318;BME280;56457;52.190;4.440;2023-10-09T00:26:11;102211.50;;;18.66;100.00
69318;BME280;56457;52.190;4.440;2023-10-09T00:27:19;102212.34;;;18.71;100.00
69318;BME280;56457;52.190;4.440;2023-10-09T00:28:21;102212.34;;;18.71;100.00
69318;BME280;56457;52.190;4.440;2023-10-09T00:29:23;102207.84;;;18.73;100.00
69318;BME280;56457;52.190;4.440;2023-10-09T00:30:23;102205.19;;;18.73;100.00
69318;BME280;56457;52.190;4.440;2023-10-09T00:31:29;102223.84;;;18.71;100.00
69318;BME280;56457;52.190;4.440;2023-10-09T00:32:33;102214.00;;;18.75;100.00
69318;BME280;56457;52.190;4.440;2023-10-09T00:33:34;102222.06;;;18.72;100.00
69318;BME280;56457;52.190;4.440;2023-10-09T00:34:34;102222.06;;;18.72;100.00
69318;BME280;56457;52.190;4.440;2023-10-09T00:35:39;102226.41;;;18.74;100.00
69318;BME280;56457;52.190;4.440;2023-10-09T00:36:54;102216.75;;;18.72;100.00
69318;BME280;56457;52.190;4.440;2023-10-09T00:37:55;102218.44;;;18.74;100.00
69318;BME280;56457;52.190;4.440;2023-10-09T00:39:03;102222.94;;;18.72;100.00
69318;BME280;56457;52.190;4.440;2023-10-09T00:40:18;102222.00;;;18.73;100.00
69318;BME280;56457;52.190;4.440;2023-10-09T00:41:27;102222.94;;;18.72;100.00
69318;BME280;56457;52.190;4.440;2023-10-09T00:42:29;102213.88;;;18.81;100.00
69318;BME280;56457;52.190;4.440;2023-10-09T00:43:29;102218.28;;;18.83;100.00
69318;BME280;56457;52.190;4.440;2023-10-09T00:44:30;102206.03;;;18.76;100.00
69318;BME280;56457;52.190;4.440;2023-10-09T00:45:38;102213.09;;;18.77;100.00
69318;BME280;56457;52.190;4.440;2023-10-09T00:46:40;102216.44;;;18.86;100.00
69318;BME280;56457;52.190;4.440;2023-10-09T00:47:43;102213.78;;;18.86;100.00
69318;BME280;56457;52.190;4.440;2023-10-09T00:48:45;102208.44;;;18.87;100.00
69318;BME280;56457;52.190;4.440;2023-10-09T00:49:51;102204.00;;;18.88;100.00
69318;BME280;56457;52.190;4.440;2023-10-09T00:50:59;102195.06;;;18.92;100.00
69318;BME280;56457;52.190;4.440;2023-10-09T00:52:00;102199.50;;;18.91;100.00
69318;BME280;56457;52.190;4.440;2023-10-09T00:53:01;102202.13;;;18.93;100.00
69318;BME280;56457;52.190;4.440;2023-10-09T00:54:04;102195.06;;;18.92;100.00
69318;BME280;56457;52.190;4.440;2023-10-09T00:55:07;102199.41;;;18.96;100.00
69318;BME280;56457;52.190;4.440;2023-10-09T00:56:13;102186.16;;;18.93;100.00
69318;BME280;56457;52.190;4.440;2023-10-09T00:57:27;102188.81;;;18.93;100.00
69318;BME280;56457;52.190;4.440;2023-10-09T00:58:27;102188.03;;;18.88;100.00
69318;BME280;56457;52.190;4.440;2023-10-09T00:59:31;102187.16;;;18.87;100.00
69318;BME280;56457;52.190;4.440;2023-10-09T01:00:34;102179.94;;;18.94;100.00
69318;BME280;56457;52.190;4.440;2023-10-09T01:01:44;102183.47;;;18.94;100.00
69318;BME280;56457;52.190;4.440;2023-10-09T01:02:54;102182.59;;;18.95;100.00
69318;BME280;56457;52.190;4.440;2023-10-09T01:04:10;102169.34;;;18.92;100.00
69318;BME280;56457;52.190;4.440;2023-10-09T01:05:11;102173.72;;;18.95;100.00
69318;BME280;56457;52.190;4.440;2023-10-09T01:06:19;102182.59;;;18.95;100.00
69318;BME280;56457;52.190;4.440;2023-10-09T01:07:28;102182.50;;;18.98;100.00
69318;BME280;56457;52.190;4.440;2023-10-09T01:08:31;102177.22;;;18.97;100.00
69318;BME280;56457;52.190;4.440;2023-10-09T01:09:48;102163.94;;;18.97;100.00
69318;BME280;56457;52.190;4.440;2023-10-09T01:10:51;102169.25;;;18.97;100.00
69318;BME280;56457;52.190;4.440;2023-10-09T01:11:56;102161.25;;;18.97;100.00
69318;BME280;56457;52.190;4.440;2023-10-09T01:13:05;102158.56;;;18.98;100.00
69318;BME280;56457;52.190;4.440;2023-10-09T01:14:09;102142.75;;;18.92;100.00
69318;BME280;56457;52.190;4.440;2023-10-09T01:15:10;102136.50;;;18.95;100.00
69318;BME280;56457;52.190;4.440;2023-10-09T01:16:30;102135.69;;;18.91;100.00
69318;BME280;56457;52.190;4.440;2023-10-09T01:17:31;102142.78;;;18.91;100.00
69318;BME280;56457;52.190;4.440;2023-10-09T01:18:39;102137.38;;;18.94;100.00
69318;BME280;56457;52.190;4.440;2023-10-09T01:19:43;102133.91;;;18.92;100.00
69318;BME280;56457;52.190;4.440;2023-10-09T01:20:44;102128.47;;;18.96;100.00
69318;BME280;56457;52.190;4.440;2023-10-09T01:21:46;102135.59;;;18.94;100.00
69318;BME280;56457;52.190;4.440;2023-10-09T01:22:46;102125.81;;;18.96;100.00
69318;BME280;56457;52.190;4.440;2023-10-09T01:23:49;102134.63;;;18.98;100.00
69318;BME280;56457;52.190;4.440;2023-10-09T01:25:03;102133.84;;;18.95;100.00
69318;BME280;56457;52.190;4.440;2023-10-09T01:26:06;102130.28;;;18.96;100.00
69318;BME280;56457;52.190;4.440;2023-10-09T01:27:06;102130.28;;;18.96;100.00
69318;BME280;56457;52.190;4.440;2023-10-09T01:28:15;102133.75;;;18.98;100.00
69318;BME280;56457;52.190;4.440;2023-10-09T01:30:19;102130.22;;;18.97;100.00
69318;BME280;56457;52.190;4.440;2023-10-09T01:31:20;102125.88;;;18.93;100.00
69318;BME280;56457;52.190;4.440;2023-10-09T01:32:20;102138.34;;;18.91;100.00
69318;BME280;56457;52.190;4.440;2023-10-09T01:33:21;102138.44;;;18.87;100.00
69318;BME280;56457;52.190;4.440;2023-10-09T01:34:29;102133.19;;;18.83;100.00
69318;BME280;56457;52.190;4.440;2023-10-09T01:35:41;102134.94;;;18.85;100.00
69318;BME280;56457;52.190;4.440;2023-10-09T01:36:48;102139.25;;;18.90;100.00
69318;BME280;56457;52.190;4.440;2023-10-09T01:37:49;102127.78;;;18.87;100.00
69318;BME280;56457;52.190;4.440;2023-10-09T01:38:51;102131.44;;;18.82;100.00
69318;BME280;56457;52.190;4.440;2023-10-09T01:39:57;102130.50;;;18.85;100.00
69318;BME280;56457;52.190;4.440;2023-10-09T01:40:59;102134.94;;;18.85;100.00
69318;BME280;56457;52.190;4.440;2023-10-09T01:42:08;102137.56;;;18.86;100.00
69318;BME280;56457;52.190;4.440;2023-10-09T01:43:09;102134.06;;;18.84;100.00
69318;BME280;56457;52.190;4.440;2023-10-09T01:44:10;102130.59;;;18.80;100.00
69318;BME280;56457;52.190;4.440;2023-10-09T01:45:12;102132.31;;;18.83;100.00
69318;BME280;56457;52.190;4.440;2023-10-09T01:46:26;102133.25;;;18.82;100.00
69318;BME280;56457;52.190;4.440;2023-10-09T01:47:27;102130.53;;;18.83;100.00
69318;BME280;56457;52.190;4.440;2023-10-09T01:48:31;102130.59;;;18.80;100.00
69318;BME280;56457;52.190;4.440;2023-10-09T01:49:38;102126.13;;;18.82;100.00
69318;BME280;56457;52.190;4.440;2023-10-09T01:50:41;102126.13;;;18.81;100.00
69318;BME280;56457;52.190;4.440;2023-10-09T01:51:42;102120.00;;;18.79;100.00
69318;BME280;56457;52.190;4.440;2023-10-09T01:52:42;102125.28;;;18.80;100.00
69318;BME280;56457;52.190;4.440;2023-10-09T01:53:43;102125.31;;;18.79;100.00
69318;BME280;56457;52.190;4.440;2023-10-09T01:54:45;102120.88;;;18.79;100.00
69318;BME280;56457;52.190;4.440;2023-10-09T01:55:51;102118.28;;;18.75;100.00
69318;BME280;56457;52.190;4.440;2023-10-09T01:56:55;102120.06;;;18.76;100.00
69318;BME280;56457;52.190;4.440;2023-10-09T01:57:56;102114.78;;;18.74;100.00
69318;BME280;56457;52.190;4.440;2023-10-09T01:59:05;102109.34;;;18.79;100.00
69318;BME280;56457;52.190;4.440;2023-10-09T02:00:09;102109.31;;;18.80;100.00
69318;BME280;56457;52.190;4.440;2023-10-09T02:01:16;102100.66;;;18.72;100.00
69318;BME280;56457;52.190;4.440;2023-10-09T02:02:16;102099.72;;;18.73;100.00
69318;BME280;56457;52.190;4.440;2023-10-09T02:03:26;102101.44;;;18.77;100.00
69318;BME280;56457;52.190;4.440;2023-10-09T02:04:29;102099.69;;;18.76;100.00
69318;BME280;56457;52.190;4.440;2023-10-09T02:05:29;102094.31;;;18.78;100.00
69318;BME280;56457;52.190;4.440;2023-10-09T02:06:33;102096.09;;;18.77;100.00
69318;BME280;56457;52.190;4.440;2023-10-09T02:07:38;102095.28;;;18.74;100.00
69318;BME280;56457;52.190;4.440;2023-10-09T02:08:41;102093.44;;;18.77;100.00
69318;BME280;56457;52.190;4.440;2023-10-09T02:09:49;102088.19;;;18.76;100.00
69318;BME280;56457;52.190;4.440;2023-10-09T02:10:49;102099.63;;;18.78;100.00
69318;BME280;56457;52.190;4.440;2023-10-09T02:11:49;102099.69;;;18.76;100.00
69318;BME280;56457;52.190;4.440;2023-10-09T02:12:51;102097.84;;;18.78;100.00
69318;BME280;56457;52.190;4.440;2023-10-09T02:13:58;102094.25;;;18.81;100.00
69318;BME280;56457;52.190;4.440;2023-10-09T02:14:59;102103.09;;;18.81;100.00
69318;BME280;56457;52.190;4.440;2023-10-09T02:16:06;102104.88;;;18.82;100.00
69318;BME280;56457;52.190;4.440;2023-10-09T02:17:14;102103.94;;;18.83;100.00
69318;BME280;56457;52.190;4.440;2023-10-09T02:18:24;102104.78;;;18.86;100.00
69318;BME280;56457;52.190;4.440;2023-10-09T02:19:33;102100.34;;;18.86;100.00
69318;BME280;56457;52.190;4.440;2023-10-09T02:20:34;102103.88;;;18.87;100.00
69318;BME280;56457;52.190;4.440;2023-10-09T02:21:38;102111.06;;;18.83;100.00
69318;BME280;56457;52.190;4.440;2023-10-09T02:22:41;102111.94;;;18.83;100.00
69318;BME280;56457;52.190;4.440;2023-10-09T02:23:42;102110.09;;;18.86;100.00
69318;BME280;56457;52.190;4.440;2023-10-09T02:24:49;102111.78;;;18.90;100.00
69318;BME280;56457;52.190;4.440;2023-10-09T02:25:50;102112.66;;;18.90;100.00
69318;BME280;56457;52.190;4.440;2023-10-09T02:26:53;102108.28;;;18.88;100.00
69318;BME280;56457;52.190;4.440;2023-10-09T02:27:53;102109.09;;;18.91;100.00
69318;BME280;56457;52.190;4.440;2023-10-09T02:28:54;102104.69;;;18.90;100.00
69318;BME280;56457;52.190;4.440;2023-10-09T02:30:04;102102.94;;;18.89;100.00
69318;BME280;56457;52.190;4.440;2023-10-09T02:31:19;102105.56;;;18.91;100.00
69318;BME280;56457;52.190;4.440;2023-10-09T02:32:22;102104.59;;;18.95;100.00
69318;BME280;56457;52.190;4.440;2023-10-09T02:33:26;102099.28;;;18.95;100.00
69318;BME280;56457;52.190;4.440;2023-10-09T02:34:30;102101.03;;;18.96;100.00
69318;BME280;56457;52.190;4.440;2023-10-09T02:35:38;102098.53;;;18.88;100.00
69318;BME280;56457;52.190;4.440;2023-10-09T02:36:39;102101.22;;;18.87;100.00
69318;BME280;56457;52.190;4.440;2023-10-09T02:37:42;102086.03;;;18.92;100.00
69318;BME280;56457;52.190;4.440;2023-10-09T02:38:45;102084.31;;;18.89;100.00
69318;BME280;56457;52.190;4.440;2023-10-09T02:39:49;102086.13;;;18.89;100.00
69318;BME280;56457;52.190;4.440;2023-10-09T02:40:52;102084.19;;;18.94;100.00
69318;BME280;56457;52.190;4.440;2023-10-09T02:42:05;102086.94;;;18.91;100.00
69318;BME280;56457;52.190;4.440;2023-10-09T02:43:20;102087.91;;;18.88;100.00
69318;BME280;56457;52.190;4.440;2023-10-09T02:44:21;102089.59;;;18.91;100.00
69318;BME280;56457;52.190;4.440;2023-10-09T02:45:26;102091.44;;;18.87;100.00
69318;BME280;56457;52.190;4.440;2023-10-09T02:46:32;102091.31;;;18.93;100.00
69318;BME280;56457;52.190;4.440;2023-10-09T02:47:34;102087.81;;;18.91;100.00
69318;BME280;56457;52.190;4.440;2023-10-09T02:48:39;102083.31;;;18.93;100.00
69318;BME280;56457;52.190;4.440;2023-10-09T02:49:45;102079.78;;;18.93;100.00
69318;BME280;56457;52.190;4.440;2023-10-09T02:50:48;102086.84;;;18.94;100.00
69318;BME280;56457;52.190;4.440;2023-10-09T02:51:50;102084.09;;;18.98;100.00
69318;BME280;56457;52.190;4.440;2023-10-09T02:52:54;102074.38;;;18.97;100.00
69318;BME280;56457;52.190;4.440;2023-10-09T02:54:00;102077.00;;;18.99;100.00
69318;BME280;56457;52.190;4.440;2023-10-09T02:55:18;102091.16;;;19.01;100.00
69318;BME280;56457;52.190;4.440;2023-10-09T02:56:26;102083.19;;;19.01;100.00
69318;BME280;56457;52.190;4.440;2023-10-09T02:57:47;102088.50;;;18.99;100.00
69318;BME280;56457;52.190;4.440;2023-10-09T02:58:51;102081.38;;;19.01;100.00
69318;BME280;56457;52.190;4.440;2023-10-09T02:59:52;102077.78;;;19.04;100.00
69318;BME280;56457;52.190;4.440;2023-10-09T03:00:52;102073.38;;;19.03;100.00
69318;BME280;56457;52.190;4.440;2023-10-09T03:01:52;102077.88;;;18.99;100.00
69318;BME280;56457;52.190;4.440;2023-10-09T03:02:53;102086.72;;;19.00;100.00
69318;BME280;56457;52.190;4.440;2023-10-09T03:03:54;102071.69;;;18.99;100.00
69318;BME280;56457;52.190;4.440;2023-10-09T03:04:57;102055.75;;;18.97;100.00
69318;BME280;56457;52.190;4.440;2023-10-09T03:05:59;102062.03;;;18.95;100.00
69318;BME280;56457;52.190;4.440;2023-10-09T03:07:01;102067.31;;;18.96;100.00
69318;BME280;56457;52.190;4.440;2023-10-09T03:08:01;102065.56;;;18.95;100.00
69318;BME280;56457;52.190;4.440;2023-10-09T03:09:02;102071.75;;;18.96;100.00
69318;BME280;56457;52.190;4.440;2023-10-09T03:10:16;102073.56;;;18.95;100.00
69318;BME280;56457;52.190;4.440;2023-10-09T03:11:17;102072.63;;;18.96;100.00
69318;BME280;56457;52.190;4.440;2023-10-09T03:12:19;102077.09;;;18.94;100.00
69318;BME280;56457;52.190;4.440;2023-10-09T03:13:22;102064.56;;;18.99;100.00
69318;BME280;56457;52.190;4.440;2023-10-09T03:14:22;102063.69;;;18.99;100.00
69318;BME280;56457;52.190;4.440;2023-10-09T03:15:26;102073.41;;;19.01;100.00
69318;BME280;56457;52.190;4.440;2023-10-09T03:16:29;102081.38;;;19.01;100.00
69318;BME280;56457;52.190;4.440;2023-10-09T03:17:29;102082.25;;;19.02;100.00
69318;BME280;56457;52.190;4.440;2023-10-09T03:18:29;102090.25;;;19.02;100.00
69318;BME280;56457;52.190;4.440;2023-10-09T03:19:33;102099.13;;;19.01;100.00
69318;BME280;56457;52.190;4.440;2023-10-09T03:20:37;102111.56;;;18.99;100.00
69318;BME280;56457;52.190;4.440;2023-10-09T03:21:37;102109.81;;;18.98;100.00
69318;BME280;56457;52.190;4.440;2023-10-09T03:22:38;102127.59;;;18.96;100.00
69318;BME280;56457;52.190;4.440;2023-10-09T03:23:39;102131.19;;;18.93;100.00
69318;BME280;56457;52.190;4.440;2023-10-09T03:24:39;102140.09;;;18.92;100.00
69318;BME280;56457;52.190;4.440;2023-10-09T03:25:44;102140.00;;;18.97;100.00
69318;BME280;56457;52.190;4.440;2023-10-09T03:26:45;102138.25;;;18.96;100.00
69318;BME280;56457;52.190;4.440;2023-10-09T03:27:46;102144.34;;;18.99;100.00
69318;BME280;56457;52.190;4.440;2023-10-09T03:28:46;102134.59;;;19.00;100.00
69318;BME280;56457;52.190;4.440;2023-10-09T03:29:47;102131.97;;;18.98;100.00
69318;BME280;56457;52.190;4.440;2023-10-09T03:30:50;102125.75;;;18.99;100.00
69318;BME280;56457;52.190;4.440;2023-10-09T03:31:50;102123.16;;;18.96;100.00
69318;BME280;56457;52.190;4.440;2023-10-09T03:32:52;102123.06;;;19.01;100.00
69318;BME280;56457;52.190;4.440;2023-10-09T03:33:52;102126.69;;;18.97;100.00
69318;BME280;56457;52.190;4.440;2023-10-09T03:34:53;102124.03;;;18.97;100.00
69318;BME280;56457;52.190;4.440;2023-10-09T03:35:55;102128.53;;;18.95;100.00
69318;BME280;56457;52.190;4.440;2023-10-09T03:36:55;102130.38;;;18.91;100.00
69318;BME280;56457;52.190;4.440;2023-10-09T03:38:06;102122.44;;;18.90;100.00
69318;BME280;56457;52.190;4.440;2023-10-09T03:39:12;102124.22;;;18.88;100.00
69318;BME280;56457;52.190;4.440;2023-10-09T03:40:31;102118.91;;;18.88;100.00
69318;BME280;56457;52.190;4.440;2023-10-09T03:41:32;102119.78;;;18.90;100.00
69318;BME280;56457;52.190;4.440;2023-10-09T03:42:32;102115.38;;;18.87;100.00
69318;BME280;56457;52.190;4.440;2023-10-09T03:43:36;102118.91;;;18.88;100.00
69318;BME280;56457;52.190;4.440;2023-10-09T03:44:41;102119.00;;;18.85;100.00
69318;BME280;56457;52.190;4.440;2023-10-09T03:45:44;102121.69;;;18.83;100.00
69318;BME280;56457;52.190;4.440;2023-10-09T03:46:54;102114.53;;;18.85;100.00
69318;BME280;56457;52.190;4.440;2023-10-09T03:47:55;102109.22;;;18.85;100.00
69318;BME280;56457;52.190;4.440;2023-10-09T03:49:09;102112.88;;;18.79;100.00
69318;BME280;56457;52.190;4.440;2023-10-09T03:50:20;102115.59;;;18.78;100.00
69318;BME280;56457;52.190;4.440;2023-10-09T03:51:27;102110.31;;;18.76;100.00
69318;BME280;56457;52.190;4.440;2023-10-09T03:52:27;102111.09;;;18.80;100.00
69318;BME280;56457;52.190;4.440;2023-10-09T03:53:31;102108.53;;;18.77;100.00
69318;BME280;56457;52.190;4.440;2023-10-09T03:54:31;102099.59;;;18.79;100.00
69318;BME280;56457;52.190;4.440;2023-10-09T03:55:32;102104.88;;;18.82;100.00
69318;BME280;56457;52.190;4.440;2023-10-09T03:56:33;102106.66;;;18.80;100.00
69318;BME280;56457;52.190;4.440;2023-10-09T03:57:33;102102.22;;;18.81;100.00
69318;BME280;56457;52.190;4.440;2023-10-09T03:58:34;102098.69;;;18.80;100.00
69318;BME280;56457;52.190;4.440;2023-10-09T03:59:34;102104.03;;;18.79;100.00
69318;BME280;56457;52.190;4.440;2023-10-09T04:00:37;102110.09;;;18.86;100.00
69318;BME280;56457;52.190;4.440;2023-10-09T04:01:49;102108.41;;;18.81;100.00
69318;BME280;56457;52.190;4.440;2023-10-09T04:02:51;102097.84;;;18.78;100.00
69318;BME280;56457;52.190;4.440;2023-10-09T04:03:52;102100.41;;;18.83;100.00
69318;BME280;56457;52.190;4.440;2023-10-09T04:04:55;102096.91;;;18.81;100.00
69318;BME280;56457;52.190;4.440;2023-10-09T04:05:55;102096.94;;;18.79;100.00
69318;BME280;56457;52.190;4.440;2023-10-09T04:06:56;102096.91;;;18.81;100.00
69318;BME280;56457;52.190;4.440;2023-10-09T04:07:56;102088.97;;;18.79;100.00
69318;BME280;56457;52.190;4.440;2023-10-09T04:09:59;102080.91;;;18.84;100.00
69318;BME280;56457;52.190;4.440;2023-10-09T04:11:22;102070.34;;;18.79;100.00
69318;BME280;56457;52.190;4.440;2023-10-09T04:12:23;102070.31;;;18.82;100.00
69318;BME280;56457;52.190;4.440;2023-10-09T04:13:25;102076.44;;;18.85;100.00
69318;BME280;56457;52.190;4.440;2023-10-09T04:14:33;102070.25;;;18.84;100.00
69318;BME280;56457;52.190;4.440;2023-10-09T04:15:33;102067.56;;;18.86;100.00
69318;BME280;56457;52.190;4.440;2023-10-09T04:16:35;102073.69;;;18.89;100.00
69318;BME280;56457;52.190;4.440;2023-10-09T04:17:51;102069.28;;;18.88;100.00
69318;BME280;56457;52.190;4.440;2023-10-09T04:18:52;102064.94;;;18.84;100.00
69318;BME280;56457;52.190;4.440;2023-10-09T04:19:52;102073.69;;;18.88;100.00
69318;BME280;56457;52.190;4.440;2023-10-09T04:21:11;102075.53;;;18.86;100.00
69318;BME280;56457;52.190;4.440;2023-10-09T04:22:30;102082.69;;;18.83;100.00
69318;BME280;56457;52.190;4.440;2023-10-09T04:23:38;102076.34;;;18.88;100.00
69318;BME280;56457;52.190;4.440;2023-10-09T04:24:57;102080.66;;;18.93;100.00
69318;BME280;56457;52.190;4.440;2023-10-09T04:25:58;102082.50;;;18.91;100.00
69318;BME280;56457;52.190;4.440;2023-10-09T04:27:00;102086.06;;;18.90;100.00
69318;BME280;56457;52.190;4.440;2023-10-09T04:28:02;102087.00;;;18.88;100.00
69318;BME280;56457;52.190;4.440;2023-10-09T04:29:09;102086.06;;;18.90;100.00
69318;BME280;56457;52.190;4.440;2023-10-09T04:30:10;102084.25;;;18.92;100.00
69318;BME280;56457;52.190;4.440;2023-10-09T04:31:15;102088.69;;;18.92;100.00
69318;BME280;56457;52.190;4.440;2023-10-09T04:32:17;102077.28;;;18.88;100.00
69318;BME280;56457;52.190;4.440;2023-10-09T04:33:18;102072.81;;;18.89;100.00
69318;BME280;56457;52.190;4.440;2023-10-09T04:34:33;102083.59;;;18.82;100.00
69318;BME280;56457;52.190;4.440;2023-10-09T04:35:38;102080.94;;;18.82;100.00
69318;BME280;56457;52.190;4.440;2023-10-09T04:36:38;102087.13;;;18.81;100.00
69318;BME280;56457;52.190;4.440;2023-10-09T04:37:49;102088.03;;;18.82;100.00
69318;BME280;56457;52.190;4.440;2023-10-09T04:39:00;102106.66;;;18.82;100.00
69318;BME280;56457;52.190;4.440;2023-10-09T04:40:03;102106.53;;;18.87;100.00
69318;BME280;56457;52.190;4.440;2023-10-09T04:41:15;102102.84;;;18.92;100.00
69318;BME280;56457;52.190;4.440;2023-10-09T04:42:27;102093.22;;;18.88;100.00
69318;BME280;56457;52.190;4.440;2023-10-09T04:43:36;102092.31;;;18.88;100.00
69318;BME280;56457;52.190;4.440;2023-10-09T04:44:44;102097.63;;;18.88;100.00
69318;BME280;56457;52.190;4.440;2023-10-09T04:46:19;102094.09;;;18.87;100.00
69318;BME280;56457;52.190;4.440;2023-10-09T04:47:23;102101.19;;;18.88;100.00
69318;BME280;56457;52.190;4.440;2023-10-09T04:48:25;102098.53;;;18.87;100.00
69318;BME280;56457;52.190;4.440;2023-10-09T04:49:38;102114.63;;;18.82;100.00
69318;BME280;56457;52.190;4.440;2023-10-09T04:50:56;102111.00;;;18.85;100.00
69318;BME280;56457;52.190;4.440;2023-10-09T04:52:16;102109.22;;;18.85;100.00
69318;BME280;56457;52.190;4.440;2023-10-09T04:53:28;102120.78;;;18.84;100.00
69318;BME280;56457;52.190;4.440;2023-10-09T04:54:39;102121.66;;;18.85;100.00
69318;BME280;56457;52.190;4.440;2023-10-09T04:55:43;102133.13;;;18.87;100.00
69318;BME280;56457;52.190;4.440;2023-10-09T04:56:57;102139.47;;;18.79;100.00
69318;BME280;56457;52.190;4.440;2023-10-09T04:57:57;102141.31;;;18.77;100.00
69318;BME280;56457;52.190;4.440;2023-10-09T04:59:01;102131.53;;;18.78;100.00
69318;BME280;56457;52.190;4.440;2023-10-09T05:00:06;102134.16;;;18.79;100.00
69318;BME280;56457;52.190;4.440;2023-10-09T05:01:25;102136.84;;;18.78;100.00
69318;BME280;56457;52.190;4.440;2023-10-09T05:02:36;102144.84;;;18.78;100.00
69318;BME280;56457;52.190;4.440;2023-10-09T05:03:36;102133.31;;;18.77;100.00
69318;BME280;56457;52.190;4.440;2023-10-09T05:04:40;102127.09;;;18.78;100.00
69318;BME280;56457;52.190;4.440;2023-10-09T05:05:41;102124.47;;;18.77;100.00
69318;BME280;56457;52.190;4.440;2023-10-09T05:06:41;102123.56;;;18.78;100.00
69318;BME280;56457;52.190;4.440;2023-10-09T05:07:55;102133.38;;;18.74;100.00
69318;BME280;56457;52.190;4.440;2023-10-09T05:08:57;102136.91;;;18.75;100.00
69318;BME280;56457;52.190;4.440;2023-10-09T05:10:07;102133.31;;;18.77;100.00
69318;BME280;56457;52.190;4.440;2023-10-09T05:11:17;102144.88;;;18.75;100.00
69318;BME280;56457;52.190;4.440;2023-10-09T05:12:36;102139.56;;;18.76;100.00
69318;BME280;56457;52.190;4.440;2023-10-09T05:13:46;102147.53;;;18.75;100.00
69318;BME280;56457;52.190;4.440;2023-10-09T05:14:57;102160.91;;;18.72;100.00
69318;BME280;56457;52.190;4.440;2023-10-09T05:16:13;102162.63;;;18.74;100.00
69318;BME280;56457;52.190;4.440;2023-10-09T05:17:40;102170.63;;;18.73;100.00
69318;BME280;56457;52.190;4.440;2023-10-09T05:18:52;102165.41;;;18.70;100.00
69318;BME280;56457;52.190;4.440;2023-10-09T05:20:25;102166.19;;;18.73;100.00
69318;BME280;56457;52.190;4.440;2023-10-09T05:21:29;102155.50;;;18.75;100.00
69318;BME280;56457;52.190;4.440;2023-10-09T05:22:33;102149.31;;;18.74;100.00
69318;BME280;56457;52.190;4.440;2023-10-09T05:23:39;102143.09;;;18.75;100.00
69318;BME280;56457;52.190;4.440;2023-10-09T05:24:49;102137.66;;;18.81;100.00
69318;BME280;56457;52.190;4.440;2023-10-09T05:25:54;102131.50;;;18.79;100.00
69318;BME280;56457;52.190;4.440;2023-10-09T05:26:55;102117.38;;;18.77;100.00
69318;BME280;56457;52.190;4.440;2023-10-09T05:28:16;102116.41;;;18.80;100.00
69318;BME280;56457;52.190;4.440;2023-10-09T05:29:25;102112.94;;;18.78;100.00
69318;BME280;56457;52.190;4.440;2023-10-09T05:30:28;102101.34;;;18.82;100.00
69318;BME280;56457;52.190;4.440;2023-10-09T05:31:34;102097.72;;;18.85;100.00
69318;BME280;56457;52.190;4.440;2023-10-09T05:32:56;102103.88;;;18.87;100.00
69318;BME280;56457;52.190;4.440;2023-10-09T05:34:05;102108.34;;;18.85;100.00
69318;BME280;56457;52.190;4.440;2023-10-09T05:35:06;102110.19;;;18.82;100.00
69318;BME280;56457;52.190;4.440;2023-10-09T05:36:15;102102.16;;;18.84;100.00
69318;BME280;56457;52.190;4.440;2023-10-09T05:37:18;102083.56;;;18.84;100.00
69318;BME280;56457;52.190;4.440;2023-10-09T05:38:25;102078.28;;;18.82;100.00
69318;BME280;56457;52.190;4.440;2023-10-09T05:39:25;102080.91;;;18.84;100.00